createdAt,value
2018-09-21T00:01:09.501Z,31.00
2018-09-21T00:03:39.208Z,31.20
2018-09-21T00:06:08.345Z,31.50
2018-09-21T00:08:37.479Z,31.80
2018-09-21T00:11:06.509Z,32.20
2018-09-21T00:13:35.486Z,32.50
2018-09-21T00:16:04.585Z,32.50
2018-09-21T00:18:33.701Z,32.30
2018-09-21T00:21:02.864Z,32.30
2018-09-21T00:23:32.243Z,32.30
2018-09-21T00:26:02.183Z,32.30
2018-09-21T00:28:31.286Z,32.40
2018-09-21T00:31:00.494Z,32.40
2018-09-21T00:33:29.654Z,32.30
2018-09-21T00:35:58.632Z,31.70
2018-09-21T00:38:27.700Z,32.10
2018-09-21T00:40:56.739Z,32.20
2018-09-21T00:43:25.826Z,32.90
2018-09-21T00:45:58.155Z,32.10
2018-09-21T00:48:27.857Z,32.30
2018-09-21T00:50:57.301Z,32.60
2018-09-21T00:53:26.525Z,32.80
2018-09-21T00:55:55.522Z,32.80
2018-09-21T00:58:24.623Z,32.60
2018-09-21T01:00:53.898Z,33.00
2018-09-21T01:03:22.868Z,33.40
2018-09-21T01:05:51.869Z,33.40
2018-09-21T01:08:21.073Z,33.70
2018-09-21T01:10:50.194Z,33.60
2018-09-21T01:16:51.768Z,33.50
2018-09-21T01:19:20.996Z,33.40
2018-09-21T01:21:50.160Z,33.70
2018-09-21T01:24:19.173Z,34.10
2018-09-21T01:26:48.204Z,34.30
2018-09-21T01:29:17.494Z,34.00
2018-09-21T01:31:47.555Z,34.60
2018-09-21T01:34:16.947Z,34.50
2018-09-21T01:36:46.243Z,34.50
2018-09-21T01:39:15.417Z,34.60
2018-09-21T01:41:44.539Z,34.60
2018-09-21T01:44:13.570Z,34.50
2018-09-21T01:46:42.774Z,34.30
2018-09-21T01:49:11.774Z,34.60
2018-09-21T01:51:40.992Z,34.70
2018-09-21T01:54:10.063Z,34.50
2018-09-21T01:56:39.202Z,35.00
2018-09-21T01:59:08.333Z,34.80
2018-09-21T02:01:39.113Z,34.60
2018-09-21T02:04:08.143Z,35.20
2018-09-21T02:06:37.202Z,35.70
2018-09-21T02:09:07.993Z,35.20
2018-09-21T02:11:37.174Z,35.10
2018-09-21T02:14:08.717Z,35.30
2018-09-21T02:16:38.141Z,35.50
2018-09-21T02:19:07.154Z,35.30
2018-09-21T02:21:36.273Z,35.40
2018-09-21T02:24:05.386Z,35.60
2018-09-21T02:26:34.366Z,35.50
2018-09-21T02:29:03.618Z,36.30
2018-09-21T02:31:32.708Z,35.70
2018-09-21T02:34:01.840Z,35.80
2018-09-21T02:36:30.833Z,35.80
2018-09-21T02:38:59.727Z,35.80
2018-09-21T02:41:29.076Z,35.90
2018-09-21T02:43:58.201Z,36.60
2018-09-21T02:46:27.678Z,35.90
2018-09-21T02:48:56.927Z,36.00
2018-09-21T02:51:25.737Z,36.20
2018-09-21T02:53:55.060Z,36.20
2018-09-21T02:56:26.155Z,36.30
2018-09-21T02:58:56.118Z,36.50
2018-09-21T03:01:25.362Z,36.60
2018-09-21T03:03:54.487Z,36.60
2018-09-21T03:06:23.604Z,36.30
2018-09-21T03:08:53.261Z,36.50
2018-09-21T03:11:22.221Z,36.40
2018-09-21T03:13:51.228Z,36.70
2018-09-21T03:16:20.351Z,36.30
2018-09-21T03:18:49.471Z,35.90
2018-09-21T03:21:18.721Z,36.50
2018-09-21T03:23:47.654Z,35.70
2018-09-21T03:26:16.796Z,35.90
2018-09-21T03:28:45.935Z,36.00
2018-09-21T03:31:15.035Z,36.30
2018-09-21T03:33:48.355Z,36.30
2018-09-21T03:36:17.457Z,36.10
2018-09-21T03:38:46.462Z,36.20
2018-09-21T03:41:15.570Z,36.10
2018-09-21T03:43:45.807Z,35.90
2018-09-21T03:46:15.959Z,35.90
2018-09-21T03:48:45.112Z,35.70
2018-09-21T03:51:14.276Z,35.80
2018-09-21T03:53:43.378Z,36.50
2018-09-21T03:56:12.601Z,35.90
2018-09-21T03:58:42.444Z,36.00
2018-09-21T04:01:11.708Z,36.40
2018-09-21T04:03:40.968Z,36.40
2018-09-21T04:06:10.099Z,37.60
2018-09-21T04:08:39.290Z,36.90
2018-09-21T04:11:08.834Z,36.60
2018-09-21T04:13:38.019Z,36.50
2018-09-21T04:16:07.308Z,36.80
2018-09-21T04:18:36.449Z,37.10
2018-09-21T04:21:05.680Z,37.10
2018-09-21T04:23:34.764Z,37.30
2018-09-21T04:26:04.265Z,37.50
2018-09-21T04:28:33.901Z,37.70
2018-09-21T04:31:03.166Z,37.90
2018-09-21T04:33:32.463Z,38.10
2018-09-21T04:36:01.706Z,38.10
2018-09-21T04:38:30.754Z,38.60
2018-09-21T04:41:01.389Z,38.50
2018-09-21T04:43:30.520Z,38.40
2018-09-21T04:45:59.314Z,38.60
2018-09-21T04:48:28.095Z,38.70
2018-09-21T04:50:56.857Z,38.60
2018-09-21T04:53:25.654Z,38.60
2018-09-21T04:55:54.426Z,38.90
2018-09-21T04:58:23.228Z,38.80
2018-09-21T05:00:52.016Z,38.80
2018-09-21T05:03:20.769Z,38.90
2018-09-21T05:05:51.092Z,39.00
2018-09-21T05:08:19.886Z,38.90
2018-09-21T05:10:48.715Z,38.90
2018-09-21T05:13:17.570Z,38.90
2018-09-21T05:15:46.723Z,38.90
2018-09-21T05:18:15.703Z,38.10
2018-09-21T05:20:46.015Z,37.80
2018-09-21T05:23:15.009Z,38.00
2018-09-21T05:25:44.192Z,38.00
2018-09-21T05:28:13.151Z,37.50
2018-09-21T05:30:42.213Z,36.50
2018-09-21T05:33:11.393Z,36.20
2018-09-21T05:35:40.499Z,36.60
2018-09-21T05:38:09.591Z,36.10
2018-09-21T05:40:38.820Z,36.00
2018-09-21T05:43:10.354Z,35.50
2018-09-21T05:45:39.506Z,35.30
2018-09-21T05:48:08.612Z,34.90
2018-09-21T05:50:37.534Z,35.10
2018-09-21T05:53:06.814Z,34.70
2018-09-21T05:55:35.990Z,34.60
2018-09-21T05:58:05.157Z,34.30
2018-09-21T06:00:34.376Z,33.70
2018-09-21T06:03:03.155Z,33.20
2018-09-21T06:05:31.906Z,32.40
2018-09-21T06:08:00.918Z,32.30
2018-09-21T06:10:30.003Z,31.90
2018-09-21T06:12:59.234Z,30.80
2018-09-21T06:15:28.249Z,30.40
2018-09-21T06:17:57.347Z,29.90
2018-09-21T06:20:27.470Z,28.70
2018-09-21T06:22:56.593Z,27.90
2018-09-21T06:25:25.714Z,26.90
2018-09-21T06:27:54.819Z,25.90
2018-09-21T06:30:23.750Z,25.10
2018-09-21T06:32:53.288Z,24.70
2018-09-21T06:35:22.472Z,24.30
2018-09-21T06:37:51.592Z,23.50
2018-09-21T06:40:20.809Z,23.00
2018-09-21T06:42:49.880Z,22.40
2018-09-21T06:45:21.366Z,21.50
2018-09-21T06:47:50.603Z,21.10
2018-09-21T06:50:19.712Z,20.80
2018-09-21T06:52:48.829Z,20.00
2018-09-21T06:55:18.035Z,19.10
2018-09-21T06:57:47.319Z,18.80
2018-09-21T07:00:16.272Z,18.30
2018-09-21T07:02:45.366Z,18.00
2018-09-21T07:05:16.873Z,17.60
2018-09-21T07:07:46.321Z,17.00
2018-09-21T07:10:15.781Z,16.60
2018-09-21T07:12:44.800Z,16.00
2018-09-21T07:15:14.019Z,15.40
2018-09-21T07:17:43.231Z,15.20
2018-09-21T07:20:12.251Z,14.60
2018-09-21T07:22:41.256Z,14.30
2018-09-21T07:25:10.461Z,14.20
2018-09-21T07:27:39.578Z,13.80
2018-09-21T07:30:08.580Z,13.90
2018-09-21T07:32:37.426Z,13.60
2018-09-21T07:35:06.303Z,13.60
2018-09-21T07:37:35.137Z,13.20
2018-09-21T07:40:04.417Z,12.80
2018-09-21T07:42:33.459Z,12.60
2018-09-21T07:45:02.268Z,12.50
2018-09-21T07:47:31.057Z,12.70
2018-09-21T07:49:59.844Z,12.40
2018-09-21T07:52:28.948Z,11.60
2018-09-21T07:54:58.266Z,11.60
2018-09-21T07:57:27.394Z,11.40
2018-09-21T07:59:56.412Z,11.20
2018-09-21T08:02:25.544Z,11.20
2018-09-21T08:04:54.735Z,11.50
2018-09-21T08:07:24.531Z,11.40
2018-09-21T08:09:53.683Z,11.20
2018-09-21T08:12:22.692Z,10.90
2018-09-21T08:14:51.835Z,10.70
2018-09-21T08:17:21.018Z,10.70
2018-09-21T08:19:50.136Z,10.60
2018-09-21T08:22:19.146Z,9.70
2018-09-21T08:24:51.424Z,9.60
2018-09-21T08:27:20.680Z,9.50
2018-09-21T08:29:49.535Z,9.30
2018-09-21T08:32:18.323Z,9.50
2018-09-21T08:34:47.156Z,9.10
2018-09-21T08:37:16.878Z,8.90
2018-09-21T08:39:45.614Z,8.40
2018-09-21T08:42:14.399Z,8.60
2018-09-21T08:44:43.515Z,8.20
2018-09-21T08:47:12.286Z,8.20
2018-09-21T08:49:41.075Z,8.40
2018-09-21T08:52:09.866Z,8.20
2018-09-21T08:54:39.309Z,8.50
2018-09-21T08:57:08.468Z,8.40
2018-09-21T08:59:37.576Z,8.40
2018-09-21T09:02:06.773Z,8.40
2018-09-21T09:04:35.550Z,8.50
2018-09-21T09:07:04.620Z,8.60
2018-09-21T09:09:33.422Z,8.40
2018-09-21T09:12:02.194Z,8.00
2018-09-21T09:14:31.003Z,7.90
2018-09-21T09:16:59.766Z,8.10
2018-09-21T09:19:29.576Z,8.00
2018-09-21T09:21:58.403Z,7.90
2018-09-21T09:24:27.226Z,8.60
2018-09-21T09:26:56.020Z,8.70
2018-09-21T09:29:24.795Z,8.00
2018-09-21T09:31:54.454Z,8.10
2018-09-21T09:34:23.242Z,8.30
2018-09-21T09:36:52.067Z,8.00
2018-09-21T09:39:20.870Z,8.30
2018-09-21T09:41:49.670Z,8.10
2018-09-21T09:44:18.420Z,8.80
2018-09-21T09:46:47.239Z,8.50
2018-09-21T09:49:16.792Z,9.90
2018-09-21T09:51:45.604Z,9.10
2018-09-21T09:54:14.359Z,9.70
2018-09-21T09:56:43.165Z,9.60
2018-09-21T09:59:12.027Z,9.40
2018-09-21T10:01:40.838Z,9.70
2018-09-21T10:04:09.651Z,9.40
2018-09-21T10:06:38.658Z,9.60
2018-09-21T10:09:09.616Z,9.60
2018-09-21T10:11:38.723Z,9.50
2018-09-21T10:14:08.494Z,10.10
2018-09-21T10:16:37.391Z,9.90
2018-09-21T10:19:06.212Z,9.80
2018-09-21T10:21:35.026Z,9.60
2018-09-21T10:24:03.848Z,9.80
2018-09-21T10:26:34.182Z,9.60
2018-09-21T10:29:02.978Z,9.40
2018-09-21T10:31:31.798Z,9.50
2018-09-21T10:34:00.582Z,9.90
2018-09-21T10:36:29.412Z,10.40
2018-09-21T10:38:58.538Z,9.50
2018-09-21T10:41:27.358Z,9.60
2018-09-21T10:43:56.145Z,9.60
2018-09-21T10:46:24.959Z,9.70
2018-09-21T10:48:53.721Z,9.80
2018-09-21T10:51:22.539Z,9.70
2018-09-21T10:53:51.655Z,9.40
2018-09-21T10:56:20.796Z,8.90
2018-09-21T10:58:49.767Z,9.40
2018-09-21T11:01:18.877Z,9.60
2018-09-21T11:03:47.901Z,10.80
2018-09-21T11:06:17.015Z,9.50
2018-09-21T11:08:46.359Z,9.10
2018-09-21T11:11:15.313Z,9.10
2018-09-21T11:13:44.110Z,9.10
2018-09-21T11:16:13.361Z,9.60
2018-09-21T11:18:42.371Z,9.70
2018-09-21T11:21:11.134Z,9.90
2018-09-21T11:23:39.917Z,10.20
2018-09-21T11:26:09.205Z,10.60
2018-09-21T11:28:38.052Z,11.10
2018-09-21T11:31:07.092Z,11.50
2018-09-21T11:33:36.134Z,11.90
2018-09-21T11:36:05.026Z,12.50
2018-09-21T11:38:34.395Z,11.20
2018-09-21T11:41:03.601Z,10.80
2018-09-21T11:43:32.908Z,11.70
2018-09-21T11:46:02.216Z,11.30
2018-09-21T11:48:31.048Z,11.00
2018-09-21T11:51:00.849Z,11.70
2018-09-21T11:53:30.046Z,12.10
2018-09-21T11:55:59.056Z,11.50
2018-09-21T11:58:27.969Z,11.90
2018-09-21T12:00:57.002Z,11.70
2018-09-21T12:03:26.234Z,10.90
2018-09-21T12:05:55.414Z,11.40
2018-09-21T12:08:24.519Z,12.00
2018-09-21T12:10:53.747Z,12.40
2018-09-21T12:13:22.968Z,12.60
2018-09-21T12:15:52.090Z,13.20
2018-09-21T12:18:21.195Z,13.00
2018-09-21T12:20:50.219Z,12.80
2018-09-21T12:23:19.146Z,13.20
2018-09-21T12:25:48.101Z,13.80
2018-09-21T12:28:17.137Z,13.70
2018-09-21T12:30:46.229Z,14.00
2018-09-21T12:33:16.187Z,13.70
2018-09-21T12:35:45.286Z,14.10
2018-09-21T12:38:14.395Z,14.70
2018-09-21T12:40:44.014Z,14.60
2018-09-21T12:43:13.196Z,15.40
2018-09-21T12:45:42.345Z,14.60
2018-09-21T12:48:11.257Z,14.60
2018-09-21T12:50:40.533Z,14.90
2018-09-21T12:53:09.699Z,14.90
2018-09-21T12:55:38.696Z,15.70
2018-09-21T12:58:08.029Z,15.70
2018-09-21T13:00:42.107Z,15.70
2018-09-21T13:03:12.591Z,15.70
2018-09-21T13:05:41.712Z,15.80
2018-09-21T13:08:10.913Z,16.10
2018-09-21T13:10:39.695Z,16.60
2018-09-21T13:13:08.484Z,16.60
2018-09-21T13:15:37.255Z,16.70
2018-09-21T13:18:06.157Z,16.90
2018-09-21T13:20:38.727Z,17.30
2018-09-21T13:23:07.525Z,16.50
2018-09-21T13:25:36.398Z,16.50
2018-09-21T13:28:05.354Z,16.60
2018-09-21T13:30:34.138Z,16.90
2018-09-21T13:33:03.297Z,16.80
2018-09-21T13:35:32.132Z,16.90
2018-09-21T13:44:48.217Z,16.90
2018-09-21T13:47:17.329Z,18.00
2018-09-21T13:49:46.153Z,16.40
2018-09-21T13:52:15.170Z,15.10
2018-09-21T13:54:44.135Z,14.90
2018-09-21T13:57:14.428Z,14.70
2018-09-21T13:59:43.494Z,15.00
2018-09-21T14:02:12.637Z,15.20
2018-09-21T14:04:41.872Z,15.10
2018-09-21T14:07:11.479Z,15.00
2018-09-21T14:09:41.354Z,14.90
2018-09-21T14:12:10.187Z,14.80
2018-09-21T14:14:39.315Z,14.30
2018-09-21T14:17:08.312Z,14.40
2018-09-21T14:19:37.104Z,14.20
2018-09-21T14:22:07.557Z,14.50
2018-09-21T14:24:36.375Z,14.70
2018-09-21T14:27:05.139Z,14.80
2018-09-21T14:29:33.921Z,15.20
2018-09-21T14:32:03.469Z,14.90
2018-09-21T14:34:33.146Z,15.20
2018-09-21T14:37:01.960Z,15.40
2018-09-21T14:39:30.739Z,15.80
2018-09-21T14:41:59.959Z,15.80
2018-09-21T14:44:28.724Z,16.00
2018-09-21T14:46:57.976Z,15.70
2018-09-21T14:49:26.760Z,15.90
2018-09-21T14:51:55.608Z,16.20
2018-09-21T14:54:24.368Z,16.60
2018-09-21T14:56:53.150Z,16.60
2018-09-21T14:59:21.960Z,16.80
2018-09-21T15:01:51.022Z,17.20
2018-09-21T15:04:21.541Z,17.20
2018-09-21T15:06:50.563Z,17.30
2018-09-21T15:09:19.692Z,17.60
2018-09-21T15:11:49.040Z,17.70
2018-09-21T15:14:18.231Z,17.90
2018-09-21T15:16:47.438Z,18.10
2018-09-21T15:19:16.564Z,18.30
2018-09-21T15:21:45.975Z,18.20
2018-09-21T15:24:15.072Z,18.50
2018-09-21T15:26:43.998Z,18.80
2018-09-21T15:29:13.204Z,18.90
2018-09-21T15:31:42.043Z,18.60
2018-09-21T15:34:11.122Z,19.60
2018-09-21T15:36:39.926Z,19.10
2018-09-21T15:39:10.798Z,19.10
2018-09-21T15:41:39.962Z,19.30
2018-09-21T15:44:08.926Z,19.40
2018-09-21T15:46:37.861Z,19.50
2018-09-21T15:49:07.096Z,19.60
2018-09-21T15:51:38.035Z,19.90
2018-09-21T15:54:06.855Z,19.90
2018-09-21T15:56:35.645Z,20.20
2018-09-21T15:59:04.437Z,20.50
2018-09-21T16:01:33.235Z,20.60
2018-09-21T16:04:02.422Z,21.20
2018-09-21T16:06:33.521Z,20.90
2018-09-21T16:09:05.046Z,21.10
2018-09-21T16:11:33.877Z,21.50
2018-09-21T16:14:02.873Z,21.90
2018-09-21T16:16:31.874Z,22.10
2018-09-21T16:19:01.096Z,22.30
2018-09-21T16:21:30.189Z,22.60
2018-09-21T16:23:59.209Z,22.80
2018-09-21T16:26:28.234Z,22.80
2018-09-21T16:28:57.442Z,23.20
2018-09-21T16:31:26.453Z,23.20
2018-09-21T16:33:56.711Z,23.50
2018-09-21T16:36:25.486Z,23.70
2018-09-21T16:38:54.287Z,23.60
2018-09-21T16:41:23.173Z,24.00
2018-09-21T16:43:51.959Z,24.40
2018-09-21T16:46:20.743Z,24.50
2018-09-21T16:48:49.636Z,25.30
2018-09-21T16:51:18.388Z,24.70
2018-09-21T16:53:47.187Z,24.50
2018-09-21T16:56:16.119Z,24.30
2018-09-21T16:58:44.930Z,23.70
2018-09-21T17:01:13.754Z,23.70
2018-09-21T17:03:42.524Z,23.40
2018-09-21T17:06:11.793Z,24.10
2018-09-21T17:08:41.228Z,24.20
2018-09-21T17:11:10.327Z,24.20
2018-09-21T17:13:39.958Z,24.70
2018-09-21T17:16:09.866Z,24.10
2018-09-21T17:18:38.829Z,24.30
2018-09-21T17:21:07.906Z,24.20
2018-09-21T17:23:36.858Z,24.10
2018-09-21T17:26:05.990Z,23.90
2018-09-21T17:28:35.274Z,24.00
2018-09-21T17:31:04.346Z,24.20
2018-09-21T17:33:33.456Z,24.40
2018-09-21T17:36:02.278Z,24.40
2018-09-21T17:38:31.288Z,24.50
2018-09-21T17:41:00.981Z,24.80
2018-09-21T17:43:30.094Z,24.50
2018-09-21T17:45:59.395Z,24.40
2018-09-21T17:48:28.229Z,24.40
2018-09-21T17:50:57.059Z,24.50
2018-09-21T17:53:26.021Z,24.50
2018-09-21T17:55:55.134Z,24.70
2018-09-21T17:58:24.485Z,24.60
2018-09-21T18:00:53.636Z,24.80
2018-09-21T18:03:22.824Z,24.80
2018-09-21T18:05:52.055Z,24.50
2018-09-21T18:08:20.920Z,24.20
2018-09-21T18:10:49.722Z,24.20
2018-09-21T18:13:18.540Z,23.70
2018-09-21T18:15:47.381Z,23.90
2018-09-21T18:18:16.199Z,24.10
2018-09-21T18:20:45.254Z,23.60
2018-09-21T18:23:14.414Z,23.80
2018-09-21T18:25:43.618Z,23.90
2018-09-21T18:28:12.712Z,23.90
2018-09-21T18:30:41.723Z,23.40
2018-09-21T18:33:10.732Z,23.00
2018-09-21T18:35:39.574Z,23.20
2018-09-21T18:38:08.376Z,23.40
2018-09-21T18:40:37.162Z,22.60
2018-09-21T18:43:06.102Z,22.30
2018-09-21T18:45:34.985Z,23.90
2018-09-21T18:48:03.808Z,23.90
2018-09-21T18:50:32.634Z,23.90
2018-09-21T18:53:01.518Z,24.40
2018-09-21T18:55:30.956Z,22.30
2018-09-21T18:57:59.767Z,22.90
2018-09-21T19:00:28.577Z,23.30
2018-09-21T19:02:57.500Z,23.20
2018-09-21T19:05:26.434Z,23.60
2018-09-21T19:07:55.259Z,23.50
2018-09-21T19:10:24.349Z,23.60
2018-09-21T19:12:53.105Z,24.10
2018-09-21T19:15:21.893Z,24.00
2018-09-21T19:17:51.084Z,23.20
2018-09-21T19:20:19.910Z,24.00
2018-09-21T19:22:48.701Z,24.10
2018-09-21T19:25:17.489Z,24.50
2018-09-21T19:27:47.440Z,24.10
2018-09-21T19:30:16.329Z,24.40
2018-09-21T19:32:45.176Z,24.60
2018-09-21T19:35:13.974Z,24.20
2018-09-21T19:37:42.790Z,24.90
2018-09-21T19:40:11.996Z,24.90
2018-09-21T19:42:40.893Z,24.60
2018-09-21T19:45:09.772Z,23.60
2018-09-21T19:47:38.522Z,23.50
2018-09-21T19:50:07.746Z,24.30
2018-09-21T19:52:36.617Z,23.70
2018-09-21T19:55:05.471Z,24.40
2018-09-21T19:57:35.817Z,25.00
2018-09-21T20:00:05.008Z,23.60
2018-09-21T20:02:33.821Z,24.70
2018-09-21T20:05:02.647Z,24.70
2018-09-21T20:07:31.465Z,25.20
2018-09-21T20:10:01.645Z,24.20
2018-09-21T20:12:30.830Z,23.80
2018-09-21T20:15:00.059Z,23.90
2018-09-21T20:17:28.828Z,24.10
2018-09-21T20:19:58.019Z,24.10
2018-09-21T20:22:30.381Z,24.20
2018-09-21T20:24:59.204Z,24.90
2018-09-21T20:27:28.049Z,24.30
2018-09-21T20:30:02.110Z,24.80
2018-09-21T20:32:36.189Z,24.60
2018-09-21T20:35:05.025Z,25.50
2018-09-21T20:37:34.649Z,24.60
2018-09-21T20:40:04.581Z,24.80
2018-09-21T20:42:33.615Z,24.70
2018-09-21T20:45:02.846Z,25.00
2018-09-21T20:47:31.927Z,25.20
2018-09-21T20:50:00.930Z,25.50
2018-09-21T20:52:31.050Z,25.70
2018-09-21T20:55:00.207Z,25.90
2018-09-21T20:57:29.064Z,26.20
2018-09-21T20:59:58.118Z,26.30
2018-09-21T21:02:27.222Z,26.30
2018-09-21T21:04:56.694Z,26.60
2018-09-21T21:07:25.524Z,26.60
2018-09-21T21:09:54.466Z,26.60
2018-09-21T21:12:23.580Z,26.50
2018-09-21T21:14:52.693Z,27.00
2018-09-21T21:17:23.198Z,27.30
2018-09-21T21:19:52.347Z,26.90
2018-09-21T21:22:21.524Z,26.50
2018-09-21T21:24:51.770Z,26.80
2018-09-21T21:27:21.645Z,27.30
2018-09-21T21:29:50.855Z,27.70
2018-09-21T21:32:20.065Z,26.30
2018-09-21T21:34:49.067Z,26.30
2018-09-21T21:37:18.438Z,27.30
2018-09-21T21:39:47.589Z,28.10
2018-09-21T21:42:17.040Z,28.80
2018-09-21T21:44:46.018Z,28.00
2018-09-21T21:47:15.150Z,28.00
2018-09-21T21:49:44.287Z,26.70
2018-09-21T21:52:13.363Z,28.10
2018-09-21T21:54:42.496Z,28.20
2018-09-21T21:57:11.699Z,28.40
2018-09-21T21:59:40.724Z,28.50
2018-09-21T22:02:11.338Z,28.60
2018-09-21T22:04:40.664Z,29.00
2018-09-21T22:07:10.753Z,27.00
2018-09-21T22:09:39.917Z,27.10
2018-09-21T22:12:18.365Z,27.30
2018-09-21T22:14:47.461Z,27.20
2018-09-21T22:17:16.578Z,28.00
2018-09-21T22:19:45.690Z,28.30
2018-09-21T22:22:14.792Z,27.30
2018-09-21T22:24:43.804Z,27.40
2018-09-21T22:27:12.823Z,28.40
2018-09-21T22:29:42.729Z,28.10
2018-09-21T22:32:11.962Z,29.20
2018-09-21T22:34:40.972Z,28.70
2018-09-21T22:37:10.089Z,29.40
2018-09-21T22:39:39.186Z,29.40
2018-09-21T22:42:08.373Z,29.60
2018-09-21T22:44:37.419Z,28.20
2018-09-21T22:47:06.706Z,29.40
2018-09-21T22:49:35.651Z,29.60
2018-09-21T22:52:05.265Z,29.60
2018-09-21T22:54:34.396Z,29.00
2018-09-21T22:57:03.713Z,29.70
2018-09-21T22:59:35.953Z,29.40
2018-09-21T23:02:05.007Z,30.00
2018-09-21T23:04:35.392Z,29.80
2018-09-21T23:07:04.606Z,30.10
2018-09-21T23:09:33.681Z,30.10
2018-09-21T23:12:02.770Z,30.60
2018-09-21T23:14:32.001Z,30.00
2018-09-21T23:17:01.060Z,30.00
2018-09-21T23:19:30.342Z,30.70
2018-09-21T23:21:59.456Z,30.60
2018-09-21T23:24:28.455Z,30.30
2018-09-21T23:26:57.573Z,30.00
2018-09-21T23:29:26.720Z,29.60
2018-09-21T23:31:55.797Z,30.20
2018-09-21T23:34:24.857Z,30.90
2018-09-21T23:36:54.014Z,31.10
2018-09-21T23:39:23.242Z,30.80
2018-09-21T23:41:53.473Z,30.00
2018-09-21T23:44:22.516Z,30.10
2018-09-21T23:46:52.514Z,30.40
2018-09-21T23:49:21.526Z,30.40
2018-09-21T23:51:50.642Z,30.40
2018-09-21T23:54:20.322Z,30.90
2018-09-21T23:56:49.275Z,30.50
2018-09-21T23:59:18.472Z,30.80
